createdAt,value
2018-09-19T00:00:27.597Z,955.93
2018-09-19T00:01:27.651Z,955.99
2018-09-19T00:02:27.584Z,955.99
2018-09-19T00:03:27.578Z,955.97
2018-09-19T00:04:27.575Z,955.99
2018-09-19T00:05:27.569Z,955.97
2018-09-19T00:06:27.562Z,956
2018-09-19T00:07:27.557Z,955.97
2018-09-19T00:08:27.552Z,955.98
2018-09-19T00:09:27.552Z,955.96
2018-09-19T00:10:27.542Z,955.99
2018-09-19T00:11:27.535Z,955.98
2018-09-19T00:12:27.530Z,955.99
2018-09-19T00:13:27.591Z,955.97
2018-09-19T00:14:27.519Z,955.96
2018-09-19T00:15:27.512Z,955.98
2018-09-19T00:16:27.509Z,955.97
2018-09-19T00:17:27.501Z,955.99
2018-09-19T00:18:27.498Z,956
2018-09-19T00:19:27.492Z,956.01
2018-09-19T00:20:27.487Z,955.96
2018-09-19T00:21:27.480Z,955.99
2018-09-19T00:22:27.476Z,955.95
2018-09-19T00:23:27.468Z,956.01
2018-09-19T00:24:27.466Z,955.99
2018-09-19T00:25:27.464Z,955.99
2018-09-19T00:26:27.452Z,956.04
2018-09-19T00:27:27.446Z,956.06
2018-09-19T00:28:27.443Z,956.04
2018-09-19T00:29:27.436Z,956.03
2018-09-19T00:30:27.440Z,956.09
2018-09-19T00:31:27.427Z,956.12
2018-09-19T00:32:27.418Z,956.11
2018-09-19T00:33:27.412Z,956.15
2018-09-19T00:34:27.406Z,956.16
2018-09-19T00:35:27.417Z,956.18
2018-09-19T00:36:27.396Z,956.15
2018-09-19T00:37:27.390Z,956.16
2018-09-19T00:38:27.383Z,956.16
2018-09-19T00:39:27.378Z,956.19
2018-09-19T00:40:27.423Z,956.18
2018-09-19T00:41:27.367Z,956.19
2018-09-19T00:42:27.383Z,956.18
2018-09-19T00:43:27.355Z,956.19
2018-09-19T00:44:27.354Z,956.19
2018-09-19T00:45:27.343Z,956.22
2018-09-19T00:46:27.340Z,956.23
2018-09-19T00:47:27.333Z,956.23
2018-09-19T00:48:27.327Z,956.22
2018-09-19T00:49:27.322Z,956.17
2018-09-19T00:50:27.319Z,956.24
2018-09-19T00:51:27.310Z,956.22
2018-09-19T00:52:27.306Z,956.19
2018-09-19T00:53:27.297Z,956.22
2018-09-19T00:54:27.341Z,956.21
2018-09-19T00:55:27.289Z,956.21
2018-09-19T00:56:27.280Z,956.25
2018-09-19T00:57:27.276Z,956.24
2018-09-19T00:58:27.270Z,956.25
2018-09-19T00:59:27.264Z,956.26
2018-09-19T01:00:27.261Z,956.26
2018-09-19T01:01:27.255Z,956.24
2018-09-19T01:02:27.247Z,956.28
2018-09-19T01:03:27.242Z,956.24
2018-09-19T01:04:27.236Z,956.26
2018-09-19T01:05:27.231Z,956.26
2018-09-19T01:06:27.225Z,956.28
2018-09-19T01:07:27.218Z,956.27
2018-09-19T01:08:27.214Z,956.3
2018-09-19T01:09:27.206Z,956.3
2018-09-19T01:10:27.208Z,956.25
2018-09-19T01:11:27.195Z,956.28
2018-09-19T01:16:13.584Z,956.29
2018-09-19T01:17:13.587Z,956.28
2018-09-19T01:18:13.574Z,956.34
2018-09-19T01:19:13.568Z,956.29
2018-09-19T01:20:13.565Z,956.31
2018-09-19T01:21:13.557Z,956.3
2018-09-19T01:22:13.552Z,956.29
2018-09-19T01:23:13.583Z,956.32
2018-09-19T01:24:13.566Z,956.31
2018-09-19T01:25:13.535Z,956.31
2018-09-19T01:26:13.529Z,956.33
2018-09-19T01:27:13.522Z,956.32
2018-09-19T01:28:13.516Z,956.28
2018-09-19T01:29:13.514Z,956.32
2018-09-19T01:30:13.505Z,956.35
2018-09-19T01:31:13.549Z,956.33
2018-09-19T01:32:13.496Z,956.38
2018-09-19T01:33:13.488Z,956.36
2018-09-19T01:34:13.482Z,956.34
2018-09-19T01:35:13.480Z,956.39
2018-09-19T01:36:13.471Z,956.38
2018-09-19T01:37:13.468Z,956.39
2018-09-19T01:38:13.482Z,956.39
2018-09-19T01:39:13.454Z,956.4
2018-09-19T01:40:13.450Z,956.41
2018-09-19T01:41:13.446Z,956.39
2018-09-19T01:42:13.437Z,956.4
2018-09-19T01:43:13.431Z,956.42
2018-09-19T01:44:13.427Z,956.41
2018-09-19T01:45:13.419Z,956.42
2018-09-19T01:46:13.413Z,956.42
2018-09-19T01:47:13.410Z,956.41
2018-09-19T01:48:13.403Z,956.46
2018-09-19T01:49:13.397Z,956.42
2018-09-19T01:50:13.393Z,956.45
2018-09-19T01:51:13.384Z,956.47
2018-09-19T01:52:13.377Z,956.47
2018-09-19T01:53:13.372Z,956.48
2018-09-19T01:54:13.366Z,956.52
2018-09-19T01:55:13.362Z,956.53
2018-09-19T01:56:13.412Z,956.51
2018-09-19T01:57:13.368Z,956.51
2018-09-19T01:58:13.344Z,956.53
2018-09-19T01:59:13.338Z,956.5
2018-09-19T02:00:13.333Z,956.54
2018-09-19T02:01:13.328Z,956.54
2018-09-19T02:02:13.320Z,956.57
2018-09-19T02:03:13.321Z,956.58
2018-09-19T02:04:13.310Z,956.58
2018-09-19T02:05:13.303Z,956.58
2018-09-19T02:06:13.297Z,956.61
2018-09-19T02:07:13.301Z,956.65
2018-09-19T02:08:13.284Z,956.63
2018-09-19T02:09:13.281Z,956.64
2018-09-19T02:10:13.327Z,956.64
2018-09-19T02:11:13.267Z,956.65
2018-09-19T02:12:13.260Z,956.66
2018-09-19T02:13:13.256Z,956.67
2018-09-19T02:14:13.248Z,956.64
2018-09-19T02:15:13.246Z,956.65
2018-09-19T02:16:13.237Z,956.65
2018-09-19T02:17:13.233Z,956.68
2018-09-19T02:18:13.228Z,956.66
2018-09-19T02:19:13.218Z,956.7
2018-09-19T02:20:13.214Z,956.72
2018-09-19T02:21:13.208Z,956.75
2018-09-19T02:22:13.209Z,956.79
2018-09-19T02:23:13.204Z,956.76
2018-09-19T02:24:13.194Z,956.72
2018-09-19T02:25:13.185Z,956.74
2018-09-19T02:26:13.177Z,956.76
2018-09-19T02:27:13.175Z,956.74
2018-09-19T02:28:13.167Z,956.76
2018-09-19T02:29:13.157Z,956.71
2018-09-19T02:30:13.153Z,956.76
2018-09-19T02:31:13.151Z,956.71
2018-09-19T02:32:13.142Z,956.71
2018-09-19T02:33:13.136Z,956.74
2018-09-19T02:34:13.131Z,956.75
2018-09-19T02:35:13.125Z,956.74
2018-09-19T02:36:13.117Z,956.74
2018-09-19T02:37:13.127Z,956.72
2018-09-19T02:38:13.109Z,956.74
2018-09-19T02:39:13.101Z,956.75
2018-09-19T02:40:13.092Z,956.79
2018-09-19T02:41:13.088Z,956.8
2018-09-19T02:42:13.080Z,956.8
2018-09-19T02:43:13.090Z,956.77
2018-09-19T02:44:13.068Z,956.77
2018-09-19T02:45:13.068Z,956.72
2018-09-19T02:46:13.056Z,956.75
2018-09-19T02:47:13.076Z,956.76
2018-09-19T02:48:13.042Z,956.76
2018-09-19T02:49:13.036Z,956.76
2018-09-19T02:50:13.030Z,956.72
2018-09-19T02:51:13.024Z,956.73
2018-09-19T02:52:13.020Z,956.73
2018-09-19T02:53:13.013Z,956.71
2018-09-19T02:54:13.004Z,956.74
2018-09-19T02:55:12.998Z,956.76
2018-09-19T02:56:12.995Z,956.79
2018-09-19T02:57:12.987Z,956.77
2018-09-19T02:58:12.978Z,956.77
2018-09-19T02:59:12.973Z,956.78
2018-09-19T03:00:12.967Z,956.8
2018-09-19T03:01:12.979Z,956.76
2018-09-19T03:02:12.961Z,956.77
2018-09-19T03:03:12.952Z,956.79
2018-09-19T03:04:12.942Z,956.82
2018-09-19T03:05:12.937Z,956.82
2018-09-19T03:06:12.932Z,956.85
2018-09-19T03:07:12.923Z,956.85
2018-09-19T03:08:12.917Z,956.86
2018-09-19T03:09:12.914Z,956.87
2018-09-19T03:10:12.921Z,956.88
2018-09-19T03:11:12.901Z,956.85
2018-09-19T03:12:12.894Z,956.84
2018-09-19T03:13:12.884Z,956.84
2018-09-19T03:14:12.879Z,956.79
2018-09-19T03:15:12.880Z,956.79
2018-09-19T03:16:12.865Z,956.82
2018-09-19T03:17:12.895Z,956.8
2018-09-19T03:18:12.855Z,956.8
2018-09-19T03:19:12.847Z,956.85
2018-09-19T03:20:12.840Z,956.83
2018-09-19T03:21:12.834Z,956.83
2018-09-19T03:22:12.828Z,956.87
2018-09-19T03:23:12.827Z,956.86
2018-09-19T03:24:12.824Z,956.89
2018-09-19T03:25:12.809Z,956.91
2018-09-19T03:26:12.809Z,956.89
2018-09-19T03:27:12.796Z,956.93
2018-09-19T03:28:12.788Z,956.97
2018-09-19T03:29:12.784Z,957.02
2018-09-19T03:30:12.777Z,957
2018-09-19T03:31:12.775Z,957.02
2018-09-19T03:32:12.764Z,957.03
2018-09-19T03:33:12.757Z,957.05
2018-09-19T03:34:12.750Z,957.08
2018-09-19T03:35:12.753Z,957.1
2018-09-19T03:36:12.738Z,957.11
2018-09-19T03:37:12.731Z,957.1
2018-09-19T03:38:12.723Z,957.13
2018-09-19T03:39:12.718Z,957.14
2018-09-19T03:40:12.715Z,957.14
2018-09-19T03:41:12.707Z,957.16
2018-09-19T03:42:12.700Z,957.15
2018-09-19T03:43:12.692Z,957.15
2018-09-19T03:44:12.687Z,957.17
2018-09-19T03:45:12.685Z,957.13
2018-09-19T03:46:12.672Z,957.15
2018-09-19T03:47:12.666Z,957.16
2018-09-19T03:48:12.659Z,957.1
2018-09-19T03:49:12.650Z,957.1
2018-09-19T03:50:12.646Z,957.1
2018-09-19T03:51:12.638Z,957.07
2018-09-19T03:52:12.632Z,957.06
2018-09-19T03:53:12.628Z,957.05
2018-09-19T03:54:12.622Z,957.02
2018-09-19T03:57:10.154Z,957.09
2018-09-19T03:58:10.214Z,957.08
2018-09-19T03:59:10.142Z,957.08
2018-09-19T04:01:55.541Z,957.12
2018-09-19T04:03:55.526Z,957.12
2018-09-19T04:04:55.524Z,957.15
2018-09-19T04:05:55.513Z,957.12
2018-09-19T04:08:28.121Z,957.22
2018-09-19T04:09:28.114Z,957.18
2018-09-19T04:10:28.107Z,957.24
2018-09-19T04:11:28.103Z,957.24
2018-09-19T04:12:28.095Z,957.23
2018-09-19T04:13:28.089Z,957.26
2018-09-19T04:14:28.081Z,957.27
2018-09-19T04:15:28.074Z,957.22
2018-09-19T04:16:28.065Z,957.25
2018-09-19T04:17:28.060Z,957.26
2018-09-19T04:18:28.056Z,957.27
2018-09-19T04:19:28.051Z,957.28
2018-09-19T04:20:28.047Z,957.28
2018-09-19T04:21:28.033Z,957.26
2018-09-19T04:22:28.028Z,957.23
2018-09-19T04:23:28.021Z,957.25
2018-09-19T04:24:28.013Z,957.22
2018-09-19T04:25:28.009Z,957.21
2018-09-19T04:26:28.008Z,957.21
2018-09-19T04:27:27.994Z,957.19
2018-09-19T04:28:27.988Z,957.21
2018-09-19T04:29:27.981Z,957.2
2018-09-19T04:30:27.977Z,957.19
2018-09-19T04:31:27.967Z,957.25
2018-09-19T04:32:28.017Z,957.2
2018-09-19T04:33:27.962Z,957.21
2018-09-19T04:34:27.950Z,957.25
2018-09-19T04:35:27.943Z,957.23
2018-09-19T04:36:27.935Z,957.24
2018-09-19T04:37:27.930Z,957.27
2018-09-19T04:38:27.921Z,957.3
2018-09-19T04:39:27.916Z,957.25
2018-09-19T04:40:27.910Z,957.26
2018-09-19T04:41:27.914Z,957.25
2018-09-19T04:42:27.895Z,957.26
2018-09-19T04:43:27.887Z,957.25
2018-09-19T04:44:27.882Z,957.26
2018-09-19T04:45:27.877Z,957.28
2018-09-19T04:46:27.869Z,957.31
2018-09-19T04:47:27.863Z,957.36
2018-09-19T04:48:27.859Z,957.33
2018-09-19T04:49:27.850Z,957.3
2018-09-19T04:50:27.844Z,957.32
2018-09-19T04:51:27.897Z,957.29
2018-09-19T04:55:25.368Z,957.38
2018-09-19T04:56:25.362Z,957.4
2018-09-19T04:57:25.356Z,957.37
2018-09-19T04:58:25.348Z,957.4
2018-09-19T04:59:25.351Z,957.41
2018-09-19T05:00:25.377Z,957.39
2018-09-19T05:01:25.329Z,957.42
2018-09-19T05:02:25.328Z,957.39
2018-09-19T05:03:25.319Z,957.4
2018-09-19T05:04:25.312Z,957.44
2018-09-19T05:05:25.356Z,957.45
2018-09-19T05:06:25.315Z,957.48
2018-09-19T05:07:25.410Z,957.45
2018-09-19T05:08:25.287Z,957.49
2018-09-19T05:09:25.283Z,957.47
2018-09-19T05:10:25.276Z,957.47
2018-09-19T05:11:25.388Z,957.5
2018-09-19T05:12:25.268Z,957.45
2018-09-19T05:13:25.260Z,957.41
2018-09-19T05:14:25.254Z,957.44
2018-09-19T05:15:25.247Z,957.47
2018-09-19T05:16:25.239Z,957.47
2018-09-19T05:17:25.233Z,957.46
2018-09-19T05:18:25.229Z,957.51
2018-09-19T05:19:25.229Z,957.51
2018-09-19T05:20:25.218Z,957.52
2018-09-19T05:21:25.213Z,957.54
2018-09-19T05:22:25.215Z,957.54
2018-09-19T05:23:25.199Z,957.58
2018-09-19T05:24:25.195Z,957.58
2018-09-19T05:25:25.189Z,957.58
2018-09-19T05:26:25.181Z,957.55
2018-09-19T05:27:25.175Z,957.66
2018-09-19T05:28:25.175Z,957.61
2018-09-19T05:29:25.166Z,957.59
2018-09-19T05:30:25.159Z,957.6
2018-09-19T05:31:25.155Z,957.62
2018-09-19T05:32:25.148Z,957.63
2018-09-19T05:33:25.144Z,957.67
2018-09-19T05:34:25.137Z,957.64
2018-09-19T05:35:25.132Z,957.65
2018-09-19T05:36:25.129Z,957.73
2018-09-19T05:37:25.119Z,957.71
2018-09-19T05:38:25.115Z,957.74
2018-09-19T05:39:25.109Z,957.79
2018-09-19T05:40:25.110Z,957.77
2018-09-19T05:41:25.100Z,957.83
2018-09-19T05:42:25.098Z,957.81
2018-09-19T05:43:25.088Z,957.8
2018-09-19T05:44:25.084Z,957.83
2018-09-19T05:52:38.307Z,958.16
2018-09-19T05:53:38.301Z,958.21
2018-09-19T05:54:38.409Z,958.23
2018-09-19T05:55:38.295Z,958.23
2018-09-19T05:56:38.285Z,958.23
2018-09-19T06:08:43.882Z,958.38
2018-09-19T06:09:43.877Z,958.41
2018-09-19T06:10:43.873Z,958.39
2018-09-19T06:11:43.867Z,958.34
2018-09-19T06:12:43.919Z,958.39
2018-09-19T06:13:43.858Z,958.36
2018-09-19T06:14:43.852Z,958.38
2018-09-19T06:15:43.848Z,958.38
2018-09-19T06:16:43.849Z,958.36
2018-09-19T06:17:43.840Z,958.36
2018-09-19T06:18:43.840Z,958.29
2018-09-19T06:19:43.827Z,958.28
2018-09-19T06:20:43.830Z,958.26
2018-09-19T06:21:43.820Z,958.27
2018-09-19T06:22:43.815Z,958.28
2018-09-19T06:23:43.809Z,958.29
2018-09-19T06:24:43.808Z,958.32
2018-09-19T06:25:43.804Z,958.25
2018-09-19T06:26:43.797Z,958.31
2018-09-19T06:27:43.829Z,958.32
2018-09-19T06:28:43.788Z,958.34
2018-09-19T06:29:43.787Z,958.41
2018-09-19T06:30:43.781Z,958.38
2018-09-19T06:31:43.777Z,958.44
2018-09-19T06:32:43.788Z,958.48
2018-09-19T06:33:43.768Z,958.54
2018-09-19T06:34:43.767Z,958.5
2018-09-19T06:35:43.758Z,958.59
2018-09-19T06:36:43.755Z,958.59
2018-09-19T06:37:43.753Z,958.55
2018-09-19T06:38:43.747Z,958.53
2018-09-19T06:39:43.751Z,958.64
2018-09-19T06:40:43.837Z,958.67
2018-09-19T06:41:43.735Z,958.72
2018-09-19T06:42:43.730Z,958.74
2018-09-19T06:43:43.727Z,958.8
2018-09-19T06:44:43.723Z,958.82
2018-09-19T06:45:43.769Z,958.81
2018-09-19T06:48:32.166Z,958.99
2018-09-19T06:49:32.163Z,959.04
2018-09-19T06:50:32.158Z,959.1
2018-09-19T06:51:32.153Z,959.13
2018-09-19T06:52:32.206Z,959.14
2018-09-19T06:53:32.146Z,959.21
2018-09-19T06:54:32.142Z,959.16
2018-09-19T06:55:32.168Z,959.19
2018-09-19T06:56:32.133Z,959.18
2018-09-19T06:57:32.128Z,959.21
2018-09-19T06:58:32.125Z,959.18
2018-09-19T06:59:32.175Z,959.18
2018-09-19T07:00:32.116Z,959.16
2018-09-19T07:01:32.112Z,959.17
2018-09-19T07:02:32.106Z,959.14
2018-09-19T07:03:32.109Z,959.13
2018-09-19T07:04:32.096Z,959.14
2018-09-19T07:05:32.092Z,959.15
2018-09-19T07:06:32.089Z,959.15
2018-09-19T07:07:32.085Z,959.18
2018-09-19T07:08:32.078Z,959.16
2018-09-19T07:09:32.074Z,959.16
2018-09-19T07:10:32.132Z,959.18
2018-09-19T07:11:32.067Z,959.21
2018-09-19T07:12:32.059Z,959.25
2018-09-19T07:13:32.055Z,959.23
2018-09-19T07:14:32.051Z,959.23
2018-09-19T07:15:32.046Z,959.25
2018-09-19T07:16:32.040Z,959.29
2018-09-19T07:17:32.036Z,959.27
2018-09-19T07:18:32.035Z,959.25
2018-09-19T07:19:32.028Z,959.27
2018-09-19T07:20:32.023Z,959.26
2018-09-19T07:21:32.018Z,959.26
2018-09-19T07:22:32.020Z,959.29
2018-09-19T07:23:32.007Z,959.28
2018-09-19T07:24:32.003Z,959.28
2018-09-19T07:25:32.021Z,959.38
2018-09-19T07:26:31.995Z,959.38
2018-09-19T07:27:31.987Z,959.37
2018-09-19T07:28:31.987Z,959.38
2018-09-19T07:29:31.981Z,959.34
2018-09-19T07:30:31.974Z,959.33
2018-09-19T07:31:31.969Z,959.29
2018-09-19T07:32:31.967Z,959.34
2018-09-19T07:33:31.958Z,959.34
2018-09-19T07:34:31.954Z,959.35
2018-09-19T07:35:31.948Z,959.37
2018-09-19T07:36:31.946Z,959.35
2018-09-19T07:37:31.939Z,959.38
2018-09-19T07:38:31.935Z,959.36
2018-09-19T07:39:31.929Z,959.39
2018-09-19T07:40:31.927Z,959.36
2018-09-19T07:41:31.919Z,959.4
2018-09-19T07:42:31.929Z,959.4
2018-09-19T07:43:31.910Z,959.42
2018-09-19T07:44:31.909Z,959.35
2018-09-19T07:45:31.900Z,959.39
2018-09-19T07:46:31.994Z,959.35
2018-09-19T07:47:31.890Z,959.35
2018-09-19T07:48:31.885Z,959.37
2018-09-19T07:49:31.881Z,959.38
2018-09-19T07:50:31.884Z,959.37
2018-09-19T07:51:31.870Z,959.43
2018-09-19T07:52:31.865Z,959.38
2018-09-19T07:53:31.863Z,959.44
2018-09-19T07:54:31.926Z,959.43
2018-09-19T07:55:31.852Z,959.4
2018-09-19T07:56:31.846Z,959.41
2018-09-19T07:57:31.853Z,959.43
2018-09-19T07:58:31.837Z,959.42
2018-09-19T07:59:31.832Z,959.45
2018-09-19T08:00:31.857Z,959.45
2018-09-19T08:01:31.823Z,959.51
2018-09-19T08:02:31.819Z,959.5
2018-09-19T08:03:31.814Z,959.48
2018-09-19T08:04:31.807Z,959.48
2018-09-19T08:05:31.804Z,959.42
2018-09-19T08:06:31.799Z,959.42
2018-09-19T08:07:31.795Z,959.45
2018-09-19T08:08:31.790Z,959.45
2018-09-19T08:09:31.789Z,959.43
2018-09-19T08:10:31.782Z,959.44
2018-09-19T08:11:31.776Z,959.43
2018-09-19T08:12:31.776Z,959.41
2018-09-19T08:13:31.768Z,959.37
2018-09-19T08:14:31.767Z,959.35
2018-09-19T08:15:31.756Z,959.33
2018-09-19T08:16:31.793Z,959.26
2018-09-19T08:17:31.747Z,959.24
2018-09-19T08:18:31.743Z,959.23
2018-09-19T08:19:31.738Z,959.27
2018-09-19T08:20:31.737Z,959.24
2018-09-19T08:21:31.730Z,959.29
2018-09-19T08:22:31.870Z,959.23
2018-09-19T08:23:31.721Z,959.26
2018-09-19T08:24:31.718Z,959.25
2018-09-19T08:25:31.713Z,959.23
2018-09-19T08:26:31.706Z,959.26
2018-09-19T08:27:31.702Z,959.26
2018-09-19T08:28:31.696Z,959.25
2018-09-19T08:29:31.707Z,959.27
2018-09-19T08:30:31.688Z,959.29
2018-09-19T08:31:31.685Z,959.31
2018-09-19T08:32:31.678Z,959.31
2018-09-19T08:33:31.674Z,959.33
2018-09-19T08:34:31.672Z,959.31
2018-09-19T08:35:31.666Z,959.33
2018-09-19T08:36:31.661Z,959.31
2018-09-19T08:37:31.674Z,959.35
2018-09-19T08:38:31.654Z,959.29
2018-09-19T08:39:31.653Z,959.28
2018-09-19T08:40:31.646Z,959.28
2018-09-19T08:41:31.641Z,959.31
2018-09-19T08:42:31.635Z,959.24
2018-09-19T08:43:31.635Z,959.19
2018-09-19T08:44:31.627Z,959.24
2018-09-19T08:45:31.624Z,959.24
2018-09-19T08:46:31.619Z,959.25
2018-09-19T08:47:31.614Z,959.25
2018-09-19T08:48:31.619Z,959.25
2018-09-19T08:49:31.607Z,959.21
2018-09-19T08:50:31.694Z,959.22
2018-09-19T08:51:31.598Z,959.2
2018-09-19T08:52:31.595Z,959.22
2018-09-19T08:53:31.593Z,959.19
2018-09-19T08:54:31.587Z,959.16
2018-09-19T08:55:31.592Z,959.18
2018-09-19T08:56:31.583Z,959.14
2018-09-19T08:57:31.580Z,959.13
2018-09-19T08:58:31.573Z,959.16
2018-09-19T08:59:31.570Z,959.1
2018-09-19T09:00:31.565Z,959.08
2018-09-19T09:01:31.570Z,959.15
2018-09-19T09:02:31.558Z,959.12
2018-09-19T09:03:31.555Z,959.14
2018-09-19T09:04:31.559Z,959.18
2018-09-19T09:05:31.549Z,959.21
2018-09-19T09:06:31.545Z,959.23
2018-09-19T09:07:31.541Z,959.24
2018-09-19T09:08:31.538Z,959.29
2018-09-19T09:09:31.535Z,959.22
2018-09-19T09:10:31.538Z,959.24
2018-09-19T09:11:31.529Z,959.27
2018-09-19T09:12:31.532Z,959.23
2018-09-19T09:13:31.530Z,959.22
2018-09-19T09:14:31.521Z,959.15
2018-09-19T09:15:31.517Z,959.17
2018-09-19T09:16:31.516Z,959.14
2018-09-19T09:17:31.509Z,959.13
2018-09-19T09:18:31.510Z,959.1
2018-09-19T09:19:31.505Z,959.08
2018-09-19T09:20:31.553Z,959.09
2018-09-19T09:21:31.499Z,959.08
2018-09-19T09:22:31.500Z,959.08
2018-09-19T09:23:31.495Z,959.1
2018-09-19T09:24:31.490Z,959.08
2018-09-19T09:25:31.499Z,959.1
2018-09-19T09:26:31.486Z,959.07
2018-09-19T09:27:31.485Z,959.12
2018-09-19T09:28:31.480Z,959.14
2018-09-19T09:29:31.492Z,959.1
2018-09-19T09:30:31.475Z,959.1
2018-09-19T09:31:31.472Z,959.09
2018-09-19T09:32:31.479Z,959.12
2018-09-19T09:33:31.467Z,959.11
2018-09-19T09:34:31.464Z,959.16
2018-09-19T09:35:31.461Z,959.15
2018-09-19T09:36:31.466Z,959.07
2018-09-19T09:37:31.461Z,959.14
2018-09-19T09:38:31.455Z,959.14
2018-09-19T09:39:31.452Z,959.13
2018-09-19T09:40:31.488Z,959.15
2018-09-19T09:41:31.456Z,959.13
2018-09-19T09:42:31.447Z,959.14
2018-09-19T09:43:31.486Z,959.15
2018-09-19T09:44:31.443Z,959.15
2018-09-19T09:45:31.448Z,959.14
2018-09-19T09:46:31.439Z,959.14
2018-09-19T09:47:31.434Z,959.12
2018-09-19T09:48:31.433Z,959.08
2018-09-19T09:49:31.429Z,959.13
2018-09-19T09:50:31.430Z,959.14
2018-09-19T09:51:31.429Z,959.15
2018-09-19T09:52:31.425Z,959.13
2018-09-19T09:54:31.420Z,959.14
2018-09-19T09:55:31.418Z,959.07
2018-09-19T09:56:31.418Z,959.08
2018-09-19T09:57:31.414Z,959.02
2018-09-19T09:58:31.414Z,958.99
2018-09-19T09:59:31.409Z,958.96
2018-09-19T10:00:31.409Z,958.97
2018-09-19T10:01:31.408Z,958.96
2018-09-19T10:02:31.403Z,958.93
2018-09-19T10:03:31.400Z,958.93
2018-09-19T10:04:31.398Z,958.91
2018-09-19T10:05:31.397Z,958.95
2018-09-19T10:06:31.430Z,958.91
2018-09-19T10:07:31.396Z,958.88
2018-09-19T10:08:31.392Z,958.9
2018-09-19T10:09:31.393Z,958.9
2018-09-19T10:10:31.387Z,958.9
2018-09-19T10:11:31.387Z,958.9
2018-09-19T10:12:31.383Z,958.86
2018-09-19T10:13:31.414Z,958.85
2018-09-19T10:14:31.379Z,958.87
2018-09-19T10:15:31.378Z,958.84
2018-09-19T10:16:31.383Z,958.85
2018-09-19T10:17:31.375Z,958.77
2018-09-19T10:18:31.373Z,958.77
2018-09-19T10:19:31.372Z,958.81
2018-09-19T10:20:31.371Z,958.81
2018-09-19T10:21:31.375Z,958.82
2018-09-19T10:22:31.370Z,958.82
2018-09-19T10:23:31.367Z,958.84
2018-09-19T10:24:31.369Z,958.88
2018-09-19T10:25:31.366Z,958.89
2018-09-19T10:26:31.363Z,958.87
2018-09-19T10:27:31.365Z,958.85
2018-09-19T10:28:31.363Z,958.87
2018-09-19T10:29:31.420Z,958.89
2018-09-19T10:30:31.360Z,958.88
2018-09-19T10:31:31.359Z,958.88
2018-09-19T10:32:31.358Z,958.87
2018-09-19T10:33:31.357Z,958.9
2018-09-19T10:34:31.365Z,958.86
2018-09-19T10:35:31.404Z,958.88
2018-09-19T10:36:31.355Z,958.95
2018-09-19T10:37:31.355Z,958.88
2018-09-19T10:38:31.353Z,958.94
2018-09-19T10:39:31.353Z,958.92
2018-09-19T10:40:31.351Z,958.91
2018-09-19T10:41:31.351Z,958.96
2018-09-19T10:42:31.351Z,958.96
2018-09-19T10:43:31.351Z,958.95
2018-09-19T10:44:31.349Z,959.01
2018-09-19T10:45:31.351Z,958.97
2018-09-19T10:46:31.348Z,959.04
2018-09-19T10:47:31.347Z,958.98
2018-09-19T10:48:31.347Z,958.98
2018-09-19T10:49:31.381Z,958.95
2018-09-19T10:50:31.345Z,959
2018-09-19T10:51:31.344Z,958.93
2018-09-19T10:52:31.344Z,958.89
2018-09-19T10:53:31.394Z,958.95
2018-09-19T10:54:31.345Z,958.96
2018-09-19T10:55:31.379Z,958.93
2018-09-19T10:56:31.344Z,958.96
2018-09-19T10:57:31.342Z,958.94
2018-09-19T10:58:31.341Z,958.94
2018-09-19T10:59:31.341Z,958.93
2018-09-19T11:00:31.342Z,958.89
2018-09-19T11:01:31.341Z,958.9
2018-09-19T11:02:31.340Z,958.91
2018-09-19T11:03:31.345Z,958.89
2018-09-19T11:04:31.340Z,958.87
2018-09-19T11:05:31.341Z,958.9
2018-09-19T11:06:31.337Z,958.88
2018-09-19T11:07:31.339Z,958.95
2018-09-19T11:08:31.338Z,958.92
2018-09-19T11:09:31.338Z,958.92
2018-09-19T11:10:31.338Z,958.95
2018-09-19T11:11:31.337Z,958.96
2018-09-19T11:12:31.338Z,958.91
2018-09-19T11:13:31.336Z,958.91
2018-09-19T11:14:31.336Z,958.86
2018-09-19T11:15:31.337Z,958.93
2018-09-19T11:16:31.337Z,958.93
2018-09-19T11:17:31.338Z,958.92
2018-09-19T11:18:31.337Z,958.9
2018-09-19T11:19:31.337Z,958.91
2018-09-19T11:20:31.337Z,958.92
2018-09-19T11:21:31.336Z,958.91
2018-09-19T11:22:31.336Z,958.9
2018-09-19T11:23:31.336Z,958.93
2018-09-19T11:24:31.336Z,958.92
2018-09-19T11:25:31.337Z,958.94
2018-09-19T11:26:31.451Z,958.89
2018-09-19T11:27:31.337Z,958.87
2018-09-19T11:28:31.337Z,958.85
2018-09-19T11:29:31.338Z,958.76
2018-09-19T11:30:31.339Z,958.79
2018-09-19T11:31:31.339Z,958.78
2018-09-19T11:32:31.342Z,958.75
2018-09-19T11:33:31.375Z,958.76
2018-09-19T11:34:31.341Z,958.76
2018-09-19T11:35:31.339Z,958.73
2018-09-19T11:36:31.340Z,958.75
2018-09-19T11:37:31.343Z,958.8
2018-09-19T11:38:31.340Z,958.77
2018-09-19T11:39:31.341Z,958.72
2018-09-19T11:40:31.342Z,958.71
2018-09-19T11:41:31.343Z,958.65
2018-09-19T11:42:31.343Z,958.63
2018-09-19T11:43:31.343Z,958.65
2018-09-19T11:44:31.345Z,958.66
2018-09-19T11:45:31.345Z,958.6
2018-09-19T11:46:31.348Z,958.63
2018-09-19T11:47:31.346Z,958.62
2018-09-19T11:48:31.347Z,958.62
2018-09-19T11:49:31.346Z,958.64
2018-09-19T11:50:31.347Z,958.65
2018-09-19T11:51:31.352Z,958.65
2018-09-19T11:52:31.351Z,958.63
2018-09-19T11:53:31.348Z,958.61
2018-09-19T11:54:31.354Z,958.62
2018-09-19T11:55:31.351Z,958.64
2018-09-19T11:56:31.352Z,958.6
2018-09-19T11:57:31.351Z,958.59
2018-09-19T11:58:31.353Z,958.66
2018-09-19T11:59:31.354Z,958.61
2018-09-19T12:00:31.359Z,958.62
2018-09-19T12:01:31.355Z,958.66
2018-09-19T12:02:31.356Z,958.63
2018-09-19T12:03:31.355Z,958.65
2018-09-19T12:04:31.356Z,958.7
2018-09-19T12:05:31.359Z,958.69
2018-09-19T12:06:31.362Z,958.7
2018-09-19T12:07:31.362Z,958.71
2018-09-19T12:08:31.359Z,958.71
2018-09-19T12:09:31.361Z,958.71
2018-09-19T12:10:31.362Z,958.71
2018-09-19T12:11:31.362Z,958.68
2018-09-19T12:12:31.363Z,958.69
2018-09-19T12:13:31.365Z,958.69
2018-09-19T12:14:31.385Z,958.66
2018-09-19T12:15:31.367Z,958.68
2018-09-19T12:16:31.366Z,958.65
2018-09-19T12:17:31.367Z,958.71
2018-09-19T12:18:31.369Z,958.71
2018-09-19T12:19:31.435Z,958.77
2018-09-19T12:20:31.371Z,958.7
2018-09-19T12:21:31.372Z,958.7
2018-09-19T12:22:31.372Z,958.62
2018-09-19T12:23:31.376Z,958.7
2018-09-19T12:24:31.375Z,958.68
2018-09-19T12:25:31.378Z,958.69
2018-09-19T12:26:31.417Z,958.6
2018-09-19T12:27:31.379Z,958.59
2018-09-19T12:28:31.382Z,958.55
2018-09-19T12:29:31.383Z,958.58
2018-09-19T12:30:31.382Z,958.55
2018-09-19T12:31:31.383Z,958.58
2018-09-19T12:32:31.384Z,958.57
2018-09-19T12:33:31.384Z,958.51
2018-09-19T12:34:31.385Z,958.49
2018-09-19T12:35:31.387Z,958.43
2018-09-19T12:36:31.389Z,958.45
2018-09-19T12:37:31.389Z,958.39
2018-09-19T12:38:31.390Z,958.41
2018-09-19T12:39:31.420Z,958.37
2018-09-19T12:40:31.395Z,958.42
2018-09-19T12:41:31.394Z,958.44
2018-09-19T12:42:31.397Z,958.45
2018-09-19T12:43:31.400Z,958.48
2018-09-19T12:44:31.398Z,958.44
2018-09-19T12:45:31.401Z,958.46
2018-09-19T12:46:31.402Z,958.43
2018-09-19T12:47:31.404Z,958.46
2018-09-19T12:48:31.404Z,958.47
2018-09-19T12:49:31.408Z,958.47
2018-09-19T12:50:31.407Z,958.45
2018-09-19T12:51:31.411Z,958.51
2018-09-19T12:52:31.410Z,958.49
2018-09-19T12:53:31.411Z,958.48
2018-09-19T12:54:31.414Z,958.49
2018-09-19T12:55:31.414Z,958.46
2018-09-19T12:56:31.420Z,958.43
2018-09-19T12:57:31.418Z,958.44
2018-09-19T12:58:31.418Z,958.39
2018-09-19T12:59:31.421Z,958.41
2018-09-19T13:00:31.421Z,958.44
2018-09-19T13:01:31.424Z,958.38
2018-09-19T13:02:31.425Z,958.43
2018-09-19T13:03:31.427Z,958.42
2018-09-19T13:04:31.428Z,958.42